sensor_id;sensor_type;location;lat;lon;timestamp;pressure;altitude;pressure_sealevel;temperature;humidity
82870;BME280;72645;47.136;15.420;2024-01-25T00:00:01;97428.77;;;10.19;41.94
82870;BME280;72645;47.136;15.420;2024-01-25T00:02:32;97430.12;;;10.20;42.19
82870;BME280;72645;47.136;15.420;2024-01-25T00:05:04;97429.55;;;10.20;42.29
82870;BME280;72645;47.136;15.420;2024-01-25T00:07:37;97417.91;;;10.19;42.47
82870;BME280;72645;47.136;15.420;2024-01-25T00:10:16;97413.81;;;10.18;42.06
82870;BME280;72645;47.136;15.420;2024-01-25T00:12:48;97413.09;;;10.18;42.03
82870;BME280;72645;47.136;15.420;2024-01-25T00:15:19;97405.45;;;10.18;42.20
82870;BME280;72645;47.136;15.420;2024-01-25T00:17:50;97397.52;;;10.16;41.97
82870;BME280;72645;47.136;15.420;2024-01-25T00:20:22;97398.83;;;10.15;42.19
82870;BME280;72645;47.136;15.420;2024-01-25T00:22:53;97397.65;;;10.12;42.11
82870;BME280;72645;47.136;15.420;2024-01-25T00:25:24;97392.02;;;10.08;42.03
82870;BME280;72645;47.136;15.420;2024-01-25T00:27:55;97380.07;;;10.04;42.47
82870;BME280;72645;47.136;15.420;2024-01-25T00:30:26;97381.72;;;10.01;42.43
82870;BME280;72645;47.136;15.420;2024-01-25T00:32:57;97390.09;;;9.97;42.50
82870;BME280;72645;47.136;15.420;2024-01-25T00:35:30;97392.65;;;9.93;41.70
82870;BME280;72645;47.136;15.420;2024-01-25T00:38:02;97399.35;;;9.93;42.00
82870;BME280;72645;47.136;15.420;2024-01-25T00:40:34;97403.79;;;9.92;42.06
82870;BME280;72645;47.136;15.420;2024-01-25T00:43:07;97404.00;;;9.92;41.77
82870;BME280;72645;47.136;15.420;2024-01-25T00:45:39;97409.77;;;9.94;41.79
82870;BME280;72645;47.136;15.420;2024-01-25T00:48:13;97419.59;;;9.93;41.90
82870;BME280;72645;47.136;15.420;2024-01-25T00:50:45;97419.98;;;9.93;41.90
82870;BME280;72645;47.136;15.420;2024-01-25T00:53:17;97424.64;;;9.92;41.85
82870;BME280;72645;47.136;15.420;2024-01-25T00:55:49;97425.38;;;9.91;42.10
82870;BME280;72645;47.136;15.420;2024-01-25T00:58:21;97424.48;;;9.89;42.27
82870;BME280;72645;47.136;15.420;2024-01-25T01:00:53;97427.27;;;9.87;42.11
82870;BME280;72645;47.136;15.420;2024-01-25T01:03:26;97438.56;;;9.86;41.78
82870;BME280;72645;47.136;15.420;2024-01-25T01:05:58;97429.59;;;9.87;41.63
82870;BME280;72645;47.136;15.420;2024-01-25T01:08:30;97430.73;;;9.88;41.63
82870;BME280;72645;47.136;15.420;2024-01-25T01:11:01;97436.33;;;9.88;42.11
82870;BME280;72645;47.136;15.420;2024-01-25T01:13:33;97431.85;;;9.87;41.71
82870;BME280;72645;47.136;15.420;2024-01-25T01:16:04;97424.11;;;9.87;41.74
82870;BME280;72645;47.136;15.420;2024-01-25T01:18:35;97425.86;;;9.87;41.97
82870;BME280;72645;47.136;15.420;2024-01-25T01:21:08;97423.33;;;9.84;42.02
82870;BME280;72645;47.136;15.420;2024-01-25T01:23:39;97426.93;;;9.80;42.13
82870;BME280;72645;47.136;15.420;2024-01-25T01:26:10;97443.46;;;9.79;41.68
82870;BME280;72645;47.136;15.420;2024-01-25T01:28:41;97440.05;;;9.80;41.92
82870;BME280;72645;47.136;15.420;2024-01-25T01:31:13;97428.52;;;9.80;41.89
82870;BME280;72645;47.136;15.420;2024-01-25T01:33:44;97415.29;;;9.80;41.71
82870;BME280;72645;47.136;15.420;2024-01-25T01:36:15;97405.12;;;9.80;41.37
82870;BME280;72645;47.136;15.420;2024-01-25T01:38:47;97397.06;;;9.80;41.80
82870;BME280;72645;47.136;15.420;2024-01-25T01:41:18;97400.23;;;9.77;41.87
82870;BME280;72645;47.136;15.420;2024-01-25T01:43:53;97407.91;;;9.76;41.89
82870;BME280;72645;47.136;15.420;2024-01-25T01:46:33;97411.02;;;9.74;42.03
82870;BME280;72645;47.136;15.420;2024-01-25T01:49:06;97412.65;;;9.71;42.04
82870;BME280;72645;47.136;15.420;2024-01-25T01:51:39;97403.95;;;9.68;41.93
82870;BME280;72645;47.136;15.420;2024-01-25T01:54:11;97403.48;;;9.67;41.94
82870;BME280;72645;47.136;15.420;2024-01-25T01:56:42;97402.66;;;9.67;41.84
82870;BME280;72645;47.136;15.420;2024-01-25T01:59:14;97399.07;;;9.66;42.00
82870;BME280;72645;47.136;15.420;2024-01-25T02:01:45;97397.77;;;9.62;42.05
82870;BME280;72645;47.136;15.420;2024-01-25T02:04:17;97393.63;;;9.59;42.00
82870;BME280;72645;47.136;15.420;2024-01-25T02:06:48;97394.30;;;9.58;41.97
82870;BME280;72645;47.136;15.420;2024-01-25T02:09:20;97396.16;;;9.56;41.90
82870;BME280;72645;47.136;15.420;2024-01-25T02:12:00;97401.52;;;9.55;41.86
82870;BME280;72645;47.136;15.420;2024-01-25T02:14:31;97398.47;;;9.54;42.13
82870;BME280;72645;47.136;15.420;2024-01-25T02:17:02;97396.68;;;9.52;42.25
82870;BME280;72645;47.136;15.420;2024-01-25T02:19:33;97402.06;;;9.50;42.37
82870;BME280;72645;47.136;15.420;2024-01-25T02:22:06;97410.02;;;9.49;42.30
82870;BME280;72645;47.136;15.420;2024-01-25T02:24:38;97411.76;;;9.47;42.35
82870;BME280;72645;47.136;15.420;2024-01-25T02:27:09;97418.27;;;9.46;42.56
82870;BME280;72645;47.136;15.420;2024-01-25T02:29:40;97422.19;;;9.45;42.74
82870;BME280;72645;47.136;15.420;2024-01-25T02:32:11;97418.77;;;9.44;42.70
82870;BME280;72645;47.136;15.420;2024-01-25T02:34:42;97422.98;;;9.44;42.57
82870;BME280;72645;47.136;15.420;2024-01-25T02:37:13;97415.20;;;9.45;42.73
82870;BME280;72645;47.136;15.420;2024-01-25T02:39:45;97422.38;;;9.45;42.50
82870;BME280;72645;47.136;15.420;2024-01-25T02:42:16;97419.09;;;9.47;42.69
82870;BME280;72645;47.136;15.420;2024-01-25T02:44:47;97417.81;;;9.48;42.85
82870;BME280;72645;47.136;15.420;2024-01-25T02:47:20;97411.46;;;9.49;42.40
82870;BME280;72645;47.136;15.420;2024-01-25T02:49:51;97408.49;;;9.51;42.24
82870;BME280;72645;47.136;15.420;2024-01-25T02:52:22;97412.05;;;9.52;42.17
82870;BME280;72645;47.136;15.420;2024-01-25T02:54:53;97410.77;;;9.53;42.33
82870;BME280;72645;47.136;15.420;2024-01-25T02:57:24;97420.70;;;9.51;42.40
82870;BME280;72645;47.136;15.420;2024-01-25T02:59:55;97425.61;;;9.49;42.09
82870;BME280;72645;47.136;15.420;2024-01-25T03:02:27;97419.20;;;9.46;42.00
82870;BME280;72645;47.136;15.420;2024-01-25T03:04:57;97425.23;;;9.45;41.76
82870;BME280;72645;47.136;15.420;2024-01-25T03:07:29;97432.98;;;9.44;41.93
82870;BME280;72645;47.136;15.420;2024-01-25T03:10:00;97413.80;;;9.41;42.03
82870;BME280;72645;47.136;15.420;2024-01-25T03:12:31;97425.77;;;9.38;41.84
82870;BME280;72645;47.136;15.420;2024-01-25T03:15:03;97428.70;;;9.36;41.38
82870;BME280;72645;47.136;15.420;2024-01-25T03:17:35;97421.73;;;9.36;41.29
82870;BME280;72645;47.136;15.420;2024-01-25T03:20:08;97414.83;;;9.35;41.32
82870;BME280;72645;47.136;15.420;2024-01-25T03:22:40;97429.27;;;9.33;41.30
82870;BME280;72645;47.136;15.420;2024-01-25T03:25:11;97426.50;;;9.31;41.11
82870;BME280;72645;47.136;15.420;2024-01-25T03:27:42;97420.17;;;9.27;41.11
82870;BME280;72645;47.136;15.420;2024-01-25T03:30:14;97435.94;;;9.24;41.09
82870;BME280;72645;47.136;15.420;2024-01-25T03:32:47;97428.70;;;9.20;41.13
82870;BME280;72645;47.136;15.420;2024-01-25T03:35:19;97395.88;;;9.18;40.88
82870;BME280;72645;47.136;15.420;2024-01-25T03:37:50;97401.05;;;9.16;41.06
82870;BME280;72645;47.136;15.420;2024-01-25T03:40:21;97410.20;;;9.13;41.00
82870;BME280;72645;47.136;15.420;2024-01-25T03:42:52;97410.97;;;9.12;41.03
82870;BME280;72645;47.136;15.420;2024-01-25T03:45:43;97417.75;;;9.08;41.24
82870;BME280;72645;47.136;15.420;2024-01-25T03:48:15;97423.48;;;9.04;41.05
82870;BME280;72645;47.136;15.420;2024-01-25T03:50:46;97407.40;;;9.00;41.33
82870;BME280;72645;47.136;15.420;2024-01-25T03:53:17;97409.63;;;8.96;41.42
82870;BME280;72645;47.136;15.420;2024-01-25T03:55:48;97415.87;;;8.92;41.25
82870;BME280;72645;47.136;15.420;2024-01-25T03:58:19;97420.58;;;8.89;41.04
82870;BME280;72645;47.136;15.420;2024-01-25T04:00:50;97426.52;;;8.90;41.23
82870;BME280;72645;47.136;15.420;2024-01-25T04:03:22;97421.89;;;8.88;41.40
82870;BME280;72645;47.136;15.420;2024-01-25T04:05:53;97426.84;;;8.87;41.50
82870;BME280;72645;47.136;15.420;2024-01-25T04:08:24;97418.54;;;8.87;41.45
82870;BME280;72645;47.136;15.420;2024-01-25T04:10:55;97410.02;;;8.86;41.69
82870;BME280;72645;47.136;15.420;2024-01-25T04:13:26;97409.62;;;8.85;42.10
82870;BME280;72645;47.136;15.420;2024-01-25T04:15:57;97415.55;;;8.82;42.18
82870;BME280;72645;47.136;15.420;2024-01-25T04:18:28;97428.27;;;8.80;42.34
82870;BME280;72645;47.136;15.420;2024-01-25T04:21:01;97420.27;;;8.78;42.50
82870;BME280;72645;47.136;15.420;2024-01-25T04:23:33;97425.29;;;8.74;42.66
82870;BME280;72645;47.136;15.420;2024-01-25T04:26:04;97428.15;;;8.68;42.86
82870;BME280;72645;47.136;15.420;2024-01-25T04:28:35;97434.43;;;8.61;43.08
82870;BME280;72645;47.136;15.420;2024-01-25T04:31:06;97422.34;;;8.56;43.39
82870;BME280;72645;47.136;15.420;2024-01-25T04:33:39;97430.75;;;8.54;43.25
82870;BME280;72645;47.136;15.420;2024-01-25T04:36:17;97429.45;;;8.52;43.49
82870;BME280;72645;47.136;15.420;2024-01-25T04:38:47;97429.27;;;8.50;43.71
82870;BME280;72645;47.136;15.420;2024-01-25T04:41:19;97420.88;;;8.48;43.75
82870;BME280;72645;47.136;15.420;2024-01-25T04:43:49;97432.98;;;8.45;44.02
82870;BME280;72645;47.136;15.420;2024-01-25T04:46:20;97428.93;;;8.41;43.98
82870;BME280;72645;47.136;15.420;2024-01-25T04:48:52;97446.32;;;8.37;44.17
82870;BME280;72645;47.136;15.420;2024-01-25T04:51:23;97451.50;;;8.30;44.27
82870;BME280;72645;47.136;15.420;2024-01-25T04:53:54;97441.35;;;8.26;44.32
82870;BME280;72645;47.136;15.420;2024-01-25T04:56:25;97446.13;;;8.23;44.44
82870;BME280;72645;47.136;15.420;2024-01-25T04:58:56;97438.98;;;8.20;44.60
82870;BME280;72645;47.136;15.420;2024-01-25T05:01:27;97427.34;;;8.17;44.61
82870;BME280;72645;47.136;15.420;2024-01-25T05:03:58;97418.46;;;8.14;44.86
82870;BME280;72645;47.136;15.420;2024-01-25T05:06:30;97432.61;;;8.12;44.92
82870;BME280;72645;47.136;15.420;2024-01-25T05:09:01;97443.29;;;8.09;45.06
82870;BME280;72645;47.136;15.420;2024-01-25T05:11:32;97448.65;;;8.05;45.19
82870;BME280;72645;47.136;15.420;2024-01-25T05:14:03;97440.20;;;7.99;45.46
82870;BME280;72645;47.136;15.420;2024-01-25T05:16:34;97450.66;;;7.94;45.89
82870;BME280;72645;47.136;15.420;2024-01-25T05:19:06;97445.69;;;7.88;45.62
82870;BME280;72645;47.136;15.420;2024-01-25T05:21:37;97454.02;;;7.86;46.02
82870;BME280;72645;47.136;15.420;2024-01-25T05:24:08;97468.84;;;7.83;45.95
82870;BME280;72645;47.136;15.420;2024-01-25T05:26:39;97473.98;;;7.85;46.06
82870;BME280;72645;47.136;15.420;2024-01-25T05:29:10;97478.89;;;7.84;46.37
82870;BME280;72645;47.136;15.420;2024-01-25T05:31:41;97486.98;;;7.83;46.42
82870;BME280;72645;47.136;15.420;2024-01-25T05:34:13;97477.44;;;7.83;46.67
82870;BME280;72645;47.136;15.420;2024-01-25T05:36:44;97471.86;;;7.83;46.76
82870;BME280;72645;47.136;15.420;2024-01-25T05:39:16;97484.17;;;7.81;47.11
82870;BME280;72645;47.136;15.420;2024-01-25T05:41:47;97479.52;;;7.77;47.40
82870;BME280;72645;47.136;15.420;2024-01-25T05:44:18;97483.48;;;7.74;47.80
82870;BME280;72645;47.136;15.420;2024-01-25T05:46:49;97483.88;;;7.70;47.88
82870;BME280;72645;47.136;15.420;2024-01-25T05:49:20;97497.00;;;7.67;47.90
82870;BME280;72645;47.136;15.420;2024-01-25T05:51:51;97504.89;;;7.61;48.31
82870;BME280;72645;47.136;15.420;2024-01-25T05:54:22;97497.14;;;7.58;48.70
82870;BME280;72645;47.136;15.420;2024-01-25T05:56:53;97501.01;;;7.52;48.80
82870;BME280;72645;47.136;15.420;2024-01-25T05:59:24;97499.98;;;7.49;48.95
82870;BME280;72645;47.136;15.420;2024-01-25T06:01:55;97499.79;;;7.47;49.47
82870;BME280;72645;47.136;15.420;2024-01-25T06:04:26;97507.34;;;7.46;49.53
82870;BME280;72645;47.136;15.420;2024-01-25T06:06:57;97510.66;;;7.46;49.90
82870;BME280;72645;47.136;15.420;2024-01-25T06:09:29;97514.07;;;7.47;50.06
82870;BME280;72645;47.136;15.420;2024-01-25T06:12:01;97508.42;;;7.46;49.70
82870;BME280;72645;47.136;15.420;2024-01-25T06:14:34;97498.02;;;7.45;50.03
82870;BME280;72645;47.136;15.420;2024-01-25T06:17:05;97504.38;;;7.44;50.29
82870;BME280;72645;47.136;15.420;2024-01-25T06:19:36;97500.69;;;7.44;50.15
82870;BME280;72645;47.136;15.420;2024-01-25T06:22:07;97512.98;;;7.45;50.47
82870;BME280;72645;47.136;15.420;2024-01-25T06:24:38;97512.75;;;7.46;50.44
82870;BME280;72645;47.136;15.420;2024-01-25T06:27:09;97492.46;;;7.47;50.78
82870;BME280;72645;47.136;15.420;2024-01-25T06:29:40;97494.16;;;7.50;50.95
82870;BME280;72645;47.136;15.420;2024-01-25T06:32:11;97489.02;;;7.52;50.94
82870;BME280;72645;47.136;15.420;2024-01-25T06:34:54;97505.36;;;7.52;51.13
82870;BME280;72645;47.136;15.420;2024-01-25T06:37:25;97508.48;;;7.53;51.22
82870;BME280;72645;47.136;15.420;2024-01-25T06:39:57;97510.92;;;7.52;51.00
82870;BME280;72645;47.136;15.420;2024-01-25T06:42:28;97524.44;;;7.51;51.64
82870;BME280;72645;47.136;15.420;2024-01-25T06:44:59;97538.36;;;7.51;51.69
82870;BME280;72645;47.136;15.420;2024-01-25T06:47:30;97545.05;;;7.50;51.78
82870;BME280;72645;47.136;15.420;2024-01-25T06:50:01;97541.59;;;7.50;51.69
82870;BME280;72645;47.136;15.420;2024-01-25T06:52:34;97551.02;;;7.50;51.77
82870;BME280;72645;47.136;15.420;2024-01-25T06:55:06;97548.21;;;7.50;52.53
82870;BME280;72645;47.136;15.420;2024-01-25T06:57:40;97556.94;;;7.52;53.97
82870;BME280;72645;47.136;15.420;2024-01-25T07:00:13;97558.31;;;7.55;54.49
82870;BME280;72645;47.136;15.420;2024-01-25T07:02:45;97563.11;;;7.59;54.00
82870;BME280;72645;47.136;15.420;2024-01-25T07:05:17;97568.22;;;7.63;54.61
82870;BME280;72645;47.136;15.420;2024-01-25T07:07:49;97570.87;;;7.67;54.85
82870;BME280;72645;47.136;15.420;2024-01-25T07:10:21;97578.47;;;7.71;54.85
82870;BME280;72645;47.136;15.420;2024-01-25T07:12:53;97584.15;;;7.77;55.50
82870;BME280;72645;47.136;15.420;2024-01-25T07:15:24;97581.68;;;7.82;54.86
82870;BME280;72645;47.136;15.420;2024-01-25T07:17:55;97573.86;;;7.87;55.69
82870;BME280;72645;47.136;15.420;2024-01-25T07:20:26;97575.84;;;7.91;55.72
82870;BME280;72645;47.136;15.420;2024-01-25T07:22:57;97575.56;;;7.93;54.98
82870;BME280;72645;47.136;15.420;2024-01-25T07:25:28;97576.05;;;7.93;55.73
82870;BME280;72645;47.136;15.420;2024-01-25T07:27:59;97581.15;;;7.95;55.15
82870;BME280;72645;47.136;15.420;2024-01-25T07:30:30;97579.64;;;7.97;55.85
82870;BME280;72645;47.136;15.420;2024-01-25T07:33:01;97586.84;;;7.98;55.75
82870;BME280;72645;47.136;15.420;2024-01-25T07:35:32;97583.48;;;7.99;55.38
82870;BME280;72645;47.136;15.420;2024-01-25T07:38:04;97577.25;;;8.01;55.79
82870;BME280;72645;47.136;15.420;2024-01-25T07:40:35;97567.79;;;8.04;55.21
82870;BME280;72645;47.136;15.420;2024-01-25T07:43:06;97587.81;;;8.09;55.22
82870;BME280;72645;47.136;15.420;2024-01-25T07:45:37;97596.80;;;8.10;54.75
82870;BME280;72645;47.136;15.420;2024-01-25T07:48:10;97599.70;;;8.11;54.98
82870;BME280;72645;47.136;15.420;2024-01-25T07:50:44;97588.31;;;8.12;54.93
82870;BME280;72645;47.136;15.420;2024-01-25T07:53:15;97571.10;;;8.14;54.98
82870;BME280;72645;47.136;15.420;2024-01-25T07:55:47;97561.35;;;8.16;54.85
82870;BME280;72645;47.136;15.420;2024-01-25T07:58:18;97544.95;;;8.18;54.58
82870;BME280;72645;47.136;15.420;2024-01-25T08:00:51;97568.42;;;8.20;54.52
82870;BME280;72645;47.136;15.420;2024-01-25T08:03:22;97566.53;;;8.19;54.36
82870;BME280;72645;47.136;15.420;2024-01-25T08:05:53;97570.95;;;8.21;54.28
82870;BME280;72645;47.136;15.420;2024-01-25T08:08:24;97581.77;;;8.26;54.42
82870;BME280;72645;47.136;15.420;2024-01-25T08:10:55;97584.29;;;8.30;54.37
82870;BME280;72645;47.136;15.420;2024-01-25T08:13:27;97582.45;;;8.34;54.39
82870;BME280;72645;47.136;15.420;2024-01-25T08:16:08;97587.54;;;8.38;54.14
82870;BME280;72645;47.136;15.420;2024-01-25T08:18:42;97588.59;;;8.43;53.74
82870;BME280;72645;47.136;15.420;2024-01-25T08:21:14;97581.16;;;8.56;58.31
82870;BME280;72645;47.136;15.420;2024-01-25T08:23:45;97572.72;;;8.72;53.84
82870;BME280;72645;47.136;15.420;2024-01-25T08:26:16;97568.15;;;8.84;53.29
82870;BME280;72645;47.136;15.420;2024-01-25T08:28:48;97572.61;;;8.95;52.44
82870;BME280;72645;47.136;15.420;2024-01-25T08:31:19;97569.34;;;9.01;51.92
82870;BME280;72645;47.136;15.420;2024-01-25T08:33:50;97562.96;;;9.07;51.83
82870;BME280;72645;47.136;15.420;2024-01-25T08:36:21;97550.98;;;9.13;51.75
82870;BME280;72645;47.136;15.420;2024-01-25T08:38:54;97545.23;;;9.22;51.70
82870;BME280;72645;47.136;15.420;2024-01-25T08:41:25;97533.30;;;9.30;51.35
82870;BME280;72645;47.136;15.420;2024-01-25T08:43:56;97529.35;;;9.36;50.86
82870;BME280;72645;47.136;15.420;2024-01-25T08:46:27;97520.55;;;9.41;50.26
82870;BME280;72645;47.136;15.420;2024-01-25T08:48:58;97520.65;;;9.47;50.14
82870;BME280;72645;47.136;15.420;2024-01-25T08:51:30;97512.94;;;9.54;49.92
82870;BME280;72645;47.136;15.420;2024-01-25T08:54:01;97493.48;;;9.61;49.67
82870;BME280;72645;47.136;15.420;2024-01-25T08:56:33;97484.43;;;9.70;49.47
82870;BME280;72645;47.136;15.420;2024-01-25T08:59:04;97474.62;;;9.77;49.16
82870;BME280;72645;47.136;15.420;2024-01-25T09:01:35;97469.06;;;9.85;49.07
82870;BME280;72645;47.136;15.420;2024-01-25T09:04:06;97451.14;;;9.95;48.27
82870;BME280;72645;47.136;15.420;2024-01-25T09:06:38;97439.65;;;10.05;48.11
82870;BME280;72645;47.136;15.420;2024-01-25T09:09:09;97430.05;;;10.14;46.59
82870;BME280;72645;47.136;15.420;2024-01-25T09:11:41;97430.05;;;10.25;46.59
82870;BME280;72645;47.136;15.420;2024-01-25T09:14:13;97424.86;;;10.35;45.51
82870;BME280;72645;47.136;15.420;2024-01-25T09:16:44;97433.75;;;10.44;45.34
82870;BME280;72645;47.136;15.420;2024-01-25T09:19:15;97433.45;;;10.54;44.44
82870;BME280;72645;47.136;15.420;2024-01-25T09:21:47;97429.32;;;10.63;44.61
82870;BME280;72645;47.136;15.420;2024-01-25T09:24:18;97430.40;;;10.77;44.49
82870;BME280;72645;47.136;15.420;2024-01-25T09:26:49;97438.86;;;10.92;44.06
82870;BME280;72645;47.136;15.420;2024-01-25T09:29:20;97433.70;;;11.03;43.36
82870;BME280;72645;47.136;15.420;2024-01-25T09:31:51;97430.48;;;11.14;42.98
82870;BME280;72645;47.136;15.420;2024-01-25T09:34:22;97422.63;;;11.22;42.05
82870;BME280;72645;47.136;15.420;2024-01-25T09:36:54;97430.95;;;11.31;42.15
82870;BME280;72645;47.136;15.420;2024-01-25T09:39:25;97427.86;;;11.42;41.57
82870;BME280;72645;47.136;15.420;2024-01-25T09:41:57;97428.27;;;11.56;40.68
82870;BME280;72645;47.136;15.420;2024-01-25T09:44:28;97421.25;;;11.67;40.68
82870;BME280;72645;47.136;15.420;2024-01-25T09:46:59;97428.20;;;11.82;40.29
82870;BME280;72645;47.136;15.420;2024-01-25T09:49:32;97421.52;;;11.94;39.63
82870;BME280;72645;47.136;15.420;2024-01-25T09:52:05;97424.55;;;12.09;39.49
82870;BME280;72645;47.136;15.420;2024-01-25T09:54:38;97417.02;;;12.26;40.04
82870;BME280;72645;47.136;15.420;2024-01-25T09:57:14;97425.58;;;12.44;38.33
82870;BME280;72645;47.136;15.420;2024-01-25T09:59:47;97418.06;;;12.53;37.13
82870;BME280;72645;47.136;15.420;2024-01-25T10:02:20;97417.47;;;12.60;36.22
82870;BME280;72645;47.136;15.420;2024-01-25T10:04:52;97406.02;;;12.60;35.67
82870;BME280;72645;47.136;15.420;2024-01-25T10:07:39;97419.04;;;12.62;35.86
82870;BME280;72645;47.136;15.420;2024-01-25T10:10:12;97401.72;;;12.65;35.35
82870;BME280;72645;47.136;15.420;2024-01-25T10:12:44;97415.20;;;12.67;34.74
82870;BME280;72645;47.136;15.420;2024-01-25T10:15:15;97403.68;;;12.70;34.89
82870;BME280;72645;47.136;15.420;2024-01-25T10:17:46;97405.66;;;12.77;34.76
82870;BME280;72645;47.136;15.420;2024-01-25T10:20:37;97394.23;;;12.87;36.21
82870;BME280;72645;47.136;15.420;2024-01-25T10:23:08;97405.59;;;12.99;34.08
82870;BME280;72645;47.136;15.420;2024-01-25T10:25:40;97399.61;;;13.07;33.42
82870;BME280;72645;47.136;15.420;2024-01-25T10:28:11;97409.03;;;13.10;33.41
82870;BME280;72645;47.136;15.420;2024-01-25T10:30:43;97403.55;;;13.14;32.58
82870;BME280;72645;47.136;15.420;2024-01-25T10:33:14;97381.98;;;13.02;31.74
82870;BME280;72645;47.136;15.420;2024-01-25T10:35:48;97400.28;;;13.06;32.59
82870;BME280;72645;47.136;15.420;2024-01-25T10:38:21;97391.94;;;13.16;32.92
82870;BME280;72645;47.136;15.420;2024-01-25T10:40:53;97394.05;;;13.33;31.87
82870;BME280;72645;47.136;15.420;2024-01-25T10:43:25;97396.75;;;13.40;32.12
82870;BME280;72645;47.136;15.420;2024-01-25T10:45:57;97394.83;;;13.52;32.59
82870;BME280;72645;47.136;15.420;2024-01-25T10:48:32;97404.48;;;13.62;31.01
82870;BME280;72645;47.136;15.420;2024-01-25T10:51:04;97398.27;;;13.60;31.52
82870;BME280;72645;47.136;15.420;2024-01-25T10:53:36;97390.59;;;13.65;31.88
82870;BME280;72645;47.136;15.420;2024-01-25T10:56:08;97383.64;;;13.79;31.13
82870;BME280;72645;47.136;15.420;2024-01-25T10:58:41;97391.49;;;13.83;30.89
82870;BME280;72645;47.136;15.420;2024-01-25T11:01:13;97387.79;;;13.85;30.53
82870;BME280;72645;47.136;15.420;2024-01-25T11:03:48;97382.52;;;13.87;31.47
82870;BME280;72645;47.136;15.420;2024-01-25T11:06:22;97385.71;;;13.94;30.53
82870;BME280;72645;47.136;15.420;2024-01-25T11:08:54;97401.22;;;13.99;30.77
82870;BME280;72645;47.136;15.420;2024-01-25T11:11:36;97396.31;;;14.06;30.57
82870;BME280;72645;47.136;15.420;2024-01-25T11:14:13;97394.79;;;14.16;30.67
82870;BME280;72645;47.136;15.420;2024-01-25T11:16:46;97387.30;;;14.30;30.38
82870;BME280;72645;47.136;15.420;2024-01-25T11:19:21;97399.40;;;14.39;30.44
82870;BME280;72645;47.136;15.420;2024-01-25T11:21:57;97391.86;;;14.52;30.48
82870;BME280;72645;47.136;15.420;2024-01-25T11:24:38;97389.55;;;14.62;30.81
82870;BME280;72645;47.136;15.420;2024-01-25T11:27:10;97396.45;;;14.71;31.54
82870;BME280;72645;47.136;15.420;2024-01-25T11:29:42;97400.79;;;14.82;31.92
82870;BME280;72645;47.136;15.420;2024-01-25T11:32:14;97403.20;;;14.95;29.80
82870;BME280;72645;47.136;15.420;2024-01-25T11:34:45;97383.80;;;14.93;29.30
82870;BME280;72645;47.136;15.420;2024-01-25T11:37:16;97374.52;;;14.93;29.95
82870;BME280;72645;47.136;15.420;2024-01-25T11:39:48;97374.33;;;14.98;30.51
82870;BME280;72645;47.136;15.420;2024-01-25T11:42:19;97387.18;;;15.07;29.94
82870;BME280;72645;47.136;15.420;2024-01-25T11:44:51;97379.33;;;15.19;29.58
82870;BME280;72645;47.136;15.420;2024-01-25T11:47:22;97384.98;;;15.25;29.18
82870;BME280;72645;47.136;15.420;2024-01-25T11:49:53;97381.90;;;15.31;28.58
82870;BME280;72645;47.136;15.420;2024-01-25T11:52:25;97386.35;;;15.20;28.20
82870;BME280;72645;47.136;15.420;2024-01-25T11:55:01;97392.04;;;15.02;28.98
82870;BME280;72645;47.136;15.420;2024-01-25T11:57:34;97389.46;;;15.10;29.40
82870;BME280;72645;47.136;15.420;2024-01-25T12:00:08;97398.13;;;15.32;28.99
82870;BME280;72645;47.136;15.420;2024-01-25T12:02:40;97401.23;;;15.33;28.20
82870;BME280;72645;47.136;15.420;2024-01-25T12:05:12;97396.77;;;15.16;28.66
82870;BME280;72645;47.136;15.420;2024-01-25T12:07:44;97400.31;;;15.16;29.47
82870;BME280;72645;47.136;15.420;2024-01-25T12:10:18;97395.36;;;15.23;29.43
82870;BME280;72645;47.136;15.420;2024-01-25T12:12:49;97411.39;;;15.29;29.64
82870;BME280;72645;47.136;15.420;2024-01-25T12:15:21;97408.63;;;15.35;29.03
82870;BME280;72645;47.136;15.420;2024-01-25T12:17:52;97408.79;;;15.32;29.82
82870;BME280;72645;47.136;15.420;2024-01-25T12:20:24;97411.09;;;15.39;30.38
82870;BME280;72645;47.136;15.420;2024-01-25T12:22:55;97404.68;;;15.54;30.19
82870;BME280;72645;47.136;15.420;2024-01-25T12:25:28;97404.14;;;15.75;29.87
82870;BME280;72645;47.136;15.420;2024-01-25T12:28:01;97408.73;;;15.92;30.25
82870;BME280;72645;47.136;15.420;2024-01-25T12:30:35;97404.27;;;16.11;29.95
82870;BME280;72645;47.136;15.420;2024-01-25T12:33:07;97406.95;;;16.26;28.59
82870;BME280;72645;47.136;15.420;2024-01-25T12:35:38;97414.30;;;16.23;27.60
82870;BME280;72645;47.136;15.420;2024-01-25T12:38:09;97409.28;;;16.11;28.17
82870;BME280;72645;47.136;15.420;2024-01-25T12:40:42;97406.95;;;16.06;29.15
82870;BME280;72645;47.136;15.420;2024-01-25T12:43:13;97402.20;;;15.99;28.11
82870;BME280;72645;47.136;15.420;2024-01-25T12:45:45;97405.27;;;15.80;28.20
82870;BME280;72645;47.136;15.420;2024-01-25T12:48:16;97409.56;;;15.72;28.37
82870;BME280;72645;47.136;15.420;2024-01-25T12:50:48;97413.45;;;15.69;28.30
82870;BME280;72645;47.136;15.420;2024-01-25T12:53:19;97407.86;;;15.70;28.78
82870;BME280;72645;47.136;15.420;2024-01-25T12:55:50;97414.66;;;15.76;28.84
82870;BME280;72645;47.136;15.420;2024-01-25T12:58:21;97407.95;;;15.80;28.12
82870;BME280;72645;47.136;15.420;2024-01-25T13:00:52;97400.73;;;15.81;27.92
82870;BME280;72645;47.136;15.420;2024-01-25T13:03:23;97402.86;;;15.87;28.43
82870;BME280;72645;47.136;15.420;2024-01-25T13:05:55;97394.37;;;15.88;28.30
82870;BME280;72645;47.136;15.420;2024-01-25T13:08:26;97389.70;;;15.92;28.37
82870;BME280;72645;47.136;15.420;2024-01-25T13:10:57;97383.36;;;15.98;28.22
82870;BME280;72645;47.136;15.420;2024-01-25T13:13:28;97394.58;;;15.96;27.99
82870;BME280;72645;47.136;15.420;2024-01-25T13:15:59;97404.01;;;15.94;28.37
82870;BME280;72645;47.136;15.420;2024-01-25T13:18:31;97398.06;;;15.90;27.76
82870;BME280;72645;47.136;15.420;2024-01-25T13:21:02;97399.27;;;15.74;27.33